createdAt,value
2017-11-08T00:00:43.535Z,100365.06
2017-11-08T00:03:12.764Z,100362.33
2017-11-08T00:05:42.760Z,100362.41
2017-11-08T00:08:13.911Z,100365.36
2017-11-08T00:10:43.175Z,100365.97
2017-11-08T00:13:12.379Z,100356.73
2017-11-08T00:15:41.897Z,100362.91
2017-11-08T00:18:11.096Z,100365.57
2017-11-08T00:20:40.312Z,100374.72
2017-11-08T00:23:12.801Z,100370.00
2017-11-08T00:25:42.393Z,100367.62
2017-11-08T00:28:12.356Z,100365.31
2017-11-08T00:30:41.914Z,100374.09
2017-11-08T00:33:11.128Z,100377.51
2017-11-08T00:35:41.848Z,100372.41
2017-11-08T00:38:11.067Z,100368.27
2017-11-08T00:40:41.043Z,100365.52
2017-11-08T00:43:10.441Z,100358.13
2017-11-08T00:45:39.663Z,100362.81
2017-11-08T00:48:08.864Z,100360.47
2017-11-08T00:50:38.103Z,100358.02
2017-11-08T00:53:10.261Z,100358.52
2017-11-08T00:55:39.450Z,100358.45
2017-11-08T00:58:09.473Z,100363.11
2017-11-08T01:00:45.371Z,100364.20
2017-11-08T01:03:14.612Z,100367.14
2017-11-08T01:05:44.576Z,100364.80
2017-11-08T01:08:13.813Z,100370.83
2017-11-08T01:10:43.011Z,100365.53
2017-11-08T01:13:13.016Z,100363.85
2017-11-08T01:15:42.996Z,100360.00
2017-11-08T01:18:12.229Z,100362.94
2017-11-08T01:20:41.439Z,100355.80
2017-11-08T01:23:11.413Z,100347.20
2017-11-08T01:25:40.660Z,100355.05
2017-11-08T01:28:09.867Z,100344.30
2017-11-08T01:30:39.867Z,100343.95
2017-11-08T01:33:09.836Z,100350.31
2017-11-08T01:35:39.225Z,100347.81
2017-11-08T01:38:13.011Z,100356.91
2017-11-08T01:40:44.114Z,100363.19
2017-11-08T01:43:13.316Z,100365.93
2017-11-08T01:45:42.520Z,100365.22
2017-11-08T01:48:16.590Z,100369.87
2017-11-08T01:50:50.739Z,100375.38
2017-11-08T01:53:20.939Z,100378.19
2017-11-08T01:55:50.247Z,100375.56
2017-11-08T01:58:19.521Z,100386.92
2017-11-08T02:00:48.720Z,100384.47
2017-11-08T02:03:17.935Z,100383.33
2017-11-08T02:05:47.149Z,100376.66
2017-11-08T02:08:16.481Z,100380.53
2017-11-08T02:10:46.438Z,100382.70
2017-11-08T02:13:15.714Z,100382.09
2017-11-08T02:16:02.303Z,100381.72
2017-11-08T02:31:56.792Z,100363.40
2017-11-08T02:34:26.018Z,100354.03
2017-11-08T02:36:55.251Z,100347.83
2017-11-08T02:39:24.758Z,100332.57
2017-11-08T02:41:54.124Z,100324.06
2017-11-08T02:44:23.402Z,100325.42
2017-11-08T02:46:58.074Z,100315.66
2017-11-08T02:49:28.067Z,100315.59
2017-11-08T02:51:57.267Z,100312.89
2017-11-08T02:54:26.741Z,100314.66
2017-11-08T02:56:55.961Z,100311.54
2017-11-08T02:59:25.171Z,100313.53
2017-11-08T03:01:54.426Z,100321.81
2017-11-08T03:04:26.231Z,100314.06
2017-11-08T03:06:55.442Z,100323.77
2017-11-08T03:09:25.572Z,100327.27
2017-11-08T03:11:55.617Z,100329.67
2017-11-08T03:14:24.843Z,100332.84
2017-11-08T03:16:54.183Z,100333.02
2017-11-08T03:19:24.245Z,100330.67
2017-11-08T03:21:53.470Z,100330.77
2017-11-08T03:24:22.686Z,100326.14
2017-11-08T03:26:53.412Z,100327.38
2017-11-08T03:29:22.619Z,100333.47
2017-11-08T03:31:52.616Z,100334.92
2017-11-08T03:34:21.851Z,100332.39
2017-11-08T03:36:51.075Z,100332.50
2017-11-08T03:39:20.289Z,100325.77
2017-11-08T03:41:49.511Z,100324.09
2017-11-08T03:44:18.768Z,100318.08
2017-11-08T03:46:49.023Z,100328.47
2017-11-08T03:49:18.221Z,100335.02
2017-11-08T03:51:48.204Z,100337.64
2017-11-08T03:54:17.444Z,100329.61
2017-11-08T03:56:46.659Z,100321.91
2017-11-08T03:59:15.863Z,100328.52
2017-11-08T04:01:45.967Z,100328.31
2017-11-08T04:04:16.052Z,100329.51
2017-11-08T04:06:45.279Z,100329.48
2017-11-08T04:09:14.505Z,100328.61
2017-11-08T04:11:43.825Z,100344.52
2017-11-08T04:14:12.995Z,100345.05
2017-11-08T04:16:43.001Z,100335.56
2017-11-08T04:19:13.053Z,100331.09
2017-11-08T04:21:42.264Z,100334.34
2017-11-08T04:24:11.892Z,100331.78
2017-11-08T04:26:41.095Z,100330.80
2017-11-08T04:29:10.323Z,100342.41
2017-11-08T04:31:39.538Z,100346.77
2017-11-08T04:34:08.896Z,100336.06
2017-11-08T04:36:38.092Z,100330.94
2017-11-08T04:39:07.312Z,100319.94
2017-11-08T04:41:37.290Z,100322.94
2017-11-08T04:44:06.928Z,100327.47
2017-11-08T04:46:36.968Z,100332.75
2017-11-08T04:49:06.945Z,100338.98
2017-11-08T04:51:36.158Z,100348.73
2017-11-08T04:54:06.139Z,100346.56
2017-11-08T04:56:36.880Z,100337.14
2017-11-08T04:59:06.107Z,100347.42
2017-11-08T05:01:36.099Z,100352.45
2017-11-08T05:04:05.482Z,100352.05
2017-11-08T05:06:34.719Z,100355.30
2017-11-08T05:09:04.725Z,100337.41
2017-11-08T05:11:34.726Z,100312.84
2017-11-08T05:14:03.936Z,100317.53
2017-11-08T05:16:33.256Z,100317.73
2017-11-08T05:19:02.492Z,100302.48
2017-11-08T05:21:31.699Z,100296.20
2017-11-08T05:24:00.918Z,100297.45
2017-11-08T05:26:30.415Z,100298.36
2017-11-08T05:28:59.637Z,100295.26
2017-11-08T05:31:28.839Z,100303.83
2017-11-08T05:33:58.843Z,100318.39
2017-11-08T05:36:28.047Z,100325.72
2017-11-08T05:38:57.287Z,100339.08
2017-11-08T05:41:26.513Z,100328.27
2017-11-08T05:43:55.715Z,100316.31
2017-11-08T05:46:24.985Z,100312.59
2017-11-08T05:48:54.205Z,100321.27
2017-11-08T05:51:23.465Z,100333.34
2017-11-08T05:53:53.100Z,100339.98
2017-11-08T05:56:22.343Z,100339.58
2017-11-08T05:58:51.721Z,100338.75
2017-11-08T06:01:21.011Z,100348.78
2017-11-08T06:03:50.233Z,100349.45
2017-11-08T06:06:20.361Z,100352.23
2017-11-08T06:08:49.606Z,100353.36
2017-11-08T06:11:18.909Z,100356.25
2017-11-08T06:13:48.119Z,100351.72
2017-11-08T06:16:17.332Z,100350.30
2017-11-08T06:18:46.559Z,100348.68
2017-11-08T06:21:16.625Z,100350.41
2017-11-08T06:23:46.047Z,100350.66
2017-11-08T06:26:15.520Z,100350.20
2017-11-08T06:28:44.747Z,100353.91
2017-11-08T06:31:13.976Z,100366.63
2017-11-08T06:33:43.960Z,100364.66
2017-11-08T06:36:13.192Z,100373.16
2017-11-08T06:38:43.176Z,100375.94
2017-11-08T06:41:12.400Z,100382.63
2017-11-08T06:43:42.372Z,100384.25
2017-11-08T06:46:11.661Z,100380.32
2017-11-08T06:48:40.847Z,100380.68
2017-11-08T06:51:11.987Z,100382.05
2017-11-08T06:53:42.951Z,100380.11
2017-11-08T06:56:12.386Z,100373.45
2017-11-08T06:58:42.395Z,100375.59
2017-11-08T07:01:11.607Z,100391.44
2017-11-08T07:03:42.331Z,100393.63
2017-11-08T07:06:13.229Z,100392.22
2017-11-08T07:08:44.535Z,100399.30
2017-11-08T07:11:14.527Z,100398.92
2017-11-08T07:13:43.751Z,100410.05
2017-11-08T07:16:13.708Z,100418.06
2017-11-08T07:18:42.923Z,100411.02
2017-11-08T07:21:12.132Z,100411.63
2017-11-08T07:23:41.502Z,100405.09
2017-11-08T07:26:10.724Z,100397.33
2017-11-08T07:28:39.927Z,100393.95
2017-11-08T07:31:09.149Z,100403.02
2017-11-08T07:33:39.118Z,100396.18
2017-11-08T07:36:08.330Z,100397.95
2017-11-08T07:38:37.802Z,100398.74
2017-11-08T07:41:07.281Z,100396.55
2017-11-08T07:43:36.496Z,100405.21
2017-11-08T07:46:05.749Z,100407.80
2017-11-08T07:48:34.992Z,100407.35
2017-11-08T07:51:04.298Z,100413.45
2017-11-08T07:53:33.600Z,100418.48
2017-11-08T07:56:03.607Z,100419.86
2017-11-08T07:58:39.393Z,100417.16
2017-11-08T08:01:08.572Z,100426.80
2017-11-08T08:03:37.801Z,100435.55
2017-11-08T08:06:07.027Z,100445.89
2017-11-08T08:08:36.216Z,100444.88
2017-11-08T08:11:11.645Z,100451.00
2017-11-08T08:13:42.367Z,100458.64
2017-11-08T08:16:13.242Z,100459.36
2017-11-08T08:18:42.446Z,100459.84
2017-11-08T08:21:16.476Z,100465.61
2017-11-08T08:23:45.700Z,100461.33
2017-11-08T08:26:14.927Z,100457.17
2017-11-08T08:28:44.161Z,100468.25
2017-11-08T08:31:13.693Z,100460.54
2017-11-08T08:33:42.923Z,100462.77
2017-11-08T08:36:12.133Z,100469.08
2017-11-08T08:38:42.127Z,100471.53
2017-11-08T08:41:11.349Z,100470.06
2017-11-08T08:43:40.552Z,100468.06
2017-11-08T08:46:09.778Z,100472.11
2017-11-08T08:48:39.003Z,100481.45
2017-11-08T08:51:08.219Z,100489.50
2017-11-08T08:53:37.424Z,100486.82
2017-11-08T08:56:06.897Z,100491.26
2017-11-08T08:58:36.105Z,100492.23
2017-11-08T09:01:05.490Z,100500.97
2017-11-08T09:03:35.565Z,100504.67
2017-11-08T09:06:05.575Z,100503.92
2017-11-08T09:08:35.563Z,100498.41
2017-11-08T09:11:04.883Z,100494.80
2017-11-08T09:13:34.073Z,100486.09
2017-11-08T09:16:03.300Z,100484.48
2017-11-08T09:18:32.510Z,100485.98
2017-11-08T09:21:01.716Z,100486.64
2017-11-08T09:23:30.939Z,100483.42
2017-11-08T09:26:00.152Z,100488.55
2017-11-08T09:28:29.476Z,100479.84
2017-11-08T09:30:59.523Z,100484.95
2017-11-08T09:33:29.540Z,100487.08
2017-11-08T09:35:58.739Z,100492.25
2017-11-08T09:38:27.981Z,100491.92
2017-11-08T09:40:58.685Z,100490.80
2017-11-08T09:43:27.891Z,100490.92
2017-11-08T09:45:57.102Z,100496.18
2017-11-08T09:48:26.346Z,100495.88
2017-11-08T09:50:55.585Z,100507.48
2017-11-08T09:53:25.060Z,100507.91
2017-11-08T09:55:54.278Z,100503.52
2017-11-08T09:58:23.500Z,100510.78
2017-11-08T10:14:20.933Z,100506.95
2017-11-08T10:16:50.172Z,100504.25
2017-11-08T10:19:20.124Z,100508.65
2017-11-08T10:21:50.155Z,100514.31
2017-11-08T10:24:19.391Z,100511.80
2017-11-08T10:26:49.434Z,100512.30
2017-11-08T10:29:18.686Z,100510.59
2017-11-08T10:31:47.957Z,100513.70
2017-11-08T10:34:17.164Z,100517.47
2017-11-08T10:36:46.389Z,100517.08
2017-11-08T10:39:15.644Z,100513.70
2017-11-08T10:41:44.853Z,100514.25
2017-11-08T10:44:14.013Z,100509.11
2017-11-08T10:46:43.241Z,100510.73
2017-11-08T10:49:17.933Z,100499.19
2017-11-08T10:51:47.165Z,100506.02
2017-11-08T10:54:17.159Z,100511.69
2017-11-08T10:56:46.377Z,100505.20
2017-11-08T10:59:21.404Z,100505.48
2017-11-08T11:01:53.428Z,100499.27
2017-11-08T11:04:22.613Z,100502.56
2017-11-08T11:06:51.838Z,100499.62
2017-11-08T11:09:22.965Z,100505.78
2017-11-08T11:11:52.187Z,100504.24
2017-11-08T11:14:21.704Z,100512.92
2017-11-08T11:16:51.064Z,100519.79
2017-11-08T11:19:21.089Z,100519.17
2017-11-08T11:22:04.897Z,100523.11
2017-11-08T11:24:37.397Z,100514.28
2017-11-08T11:27:12.005Z,100510.94
2017-11-08T11:29:41.893Z,100515.52
2017-11-08T11:32:11.988Z,100518.19
2017-11-08T11:34:41.217Z,100516.77
2017-11-08T11:37:11.192Z,100516.36
2017-11-08T11:39:40.401Z,100513.56
2017-11-08T11:42:09.608Z,100511.81
2017-11-08T11:44:38.826Z,100509.80
2017-11-08T11:47:08.052Z,100510.92
2017-11-08T11:49:37.248Z,100517.28
2017-11-08T11:52:06.489Z,100516.83
2017-11-08T11:54:35.707Z,100507.91
2017-11-08T11:57:04.898Z,100506.87
2017-11-08T11:59:37.042Z,100503.39
2017-11-08T12:02:06.229Z,100503.70
2017-11-08T12:04:35.448Z,100511.12
2017-11-08T12:07:04.711Z,100510.50
2017-11-08T12:09:33.905Z,100504.01
2017-11-08T12:12:03.203Z,100519.40
2017-11-08T12:14:32.403Z,100520.69
2017-11-08T12:17:01.620Z,100521.86
2017-11-08T12:19:30.842Z,100516.94
2017-11-08T12:22:00.039Z,100518.94
2017-11-08T12:24:29.245Z,100508.41
2017-11-08T12:27:03.973Z,100511.98
2017-11-08T12:29:33.169Z,100509.36
2017-11-08T12:32:02.352Z,100516.08
2017-11-08T12:34:31.561Z,100510.10
2017-11-08T12:37:00.859Z,100513.19
2017-11-08T12:39:30.070Z,100511.98
2017-11-08T12:42:14.811Z,100508.70
2017-11-08T12:44:49.827Z,100504.95
2017-11-08T12:47:19.880Z,100504.42
2017-11-08T12:49:49.030Z,100496.91
2017-11-08T12:52:18.199Z,100489.28
2017-11-08T12:54:47.477Z,100482.39
2017-11-08T12:57:16.691Z,100484.70
2017-11-08T12:59:46.656Z,100481.47
2017-11-08T13:02:15.960Z,100485.36
2017-11-08T13:04:45.180Z,100483.85
2017-11-08T13:07:14.365Z,100477.97
2017-11-08T13:09:43.709Z,100475.78
2017-11-08T13:12:13.681Z,100479.62
2017-11-08T13:14:42.912Z,100476.41
2017-11-08T13:17:12.899Z,100484.23
2017-11-08T13:19:42.124Z,100490.72
2017-11-08T13:22:11.572Z,100490.48
2017-11-08T13:24:40.797Z,100500.05
2017-11-08T13:27:10.017Z,100506.62
2017-11-08T13:29:39.281Z,100507.59
2017-11-08T13:32:08.465Z,100510.70
2017-11-08T13:34:37.760Z,100523.73
2017-11-08T13:37:07.084Z,100525.20
2017-11-08T13:39:36.280Z,100527.84
2017-11-08T13:42:11.828Z,100522.23
2017-11-08T13:44:41.069Z,100526.31
2017-11-08T13:47:11.054Z,100529.22
2017-11-08T13:49:40.293Z,100531.81
2017-11-08T13:52:10.335Z,100532.65
2017-11-08T13:54:39.636Z,100532.98
2017-11-08T13:57:08.852Z,100537.20
2017-11-08T13:59:38.365Z,100539.91
2017-11-08T14:02:07.583Z,100536.16
2017-11-08T14:04:38.361Z,100538.72
2017-11-08T14:07:07.755Z,100545.81
2017-11-08T14:09:36.993Z,100534.03
2017-11-08T14:12:06.257Z,100546.80
2017-11-08T14:14:35.463Z,100545.94
2017-11-08T14:17:04.686Z,100545.41
2017-11-08T14:19:33.896Z,100551.79
2017-11-08T14:22:03.265Z,100538.52
2017-11-08T14:24:32.492Z,100540.52
2017-11-08T14:27:01.704Z,100544.12
2017-11-08T14:29:34.596Z,100550.64
2017-11-08T14:32:04.210Z,100559.73
2017-11-08T14:34:33.477Z,100560.28
2017-11-08T14:37:02.688Z,100562.20
2017-11-08T14:39:31.937Z,100559.61
2017-11-08T14:55:30.035Z,100566.52
2017-11-08T14:57:59.224Z,100572.25
2017-11-08T15:00:31.417Z,100571.28
2017-11-08T15:03:00.625Z,100585.14
2017-11-08T15:05:30.753Z,100587.43
2017-11-08T15:08:00.098Z,100587.14
2017-11-08T15:10:29.308Z,100587.45
2017-11-08T15:12:58.608Z,100590.03
2017-11-08T15:15:27.894Z,100582.89
2017-11-08T15:17:57.139Z,100578.83
2017-11-08T15:20:29.004Z,100582.89
2017-11-08T15:22:59.022Z,100581.82
2017-11-08T15:25:28.280Z,100582.28
2017-11-08T15:27:57.705Z,100585.56
2017-11-08T15:30:28.672Z,100588.86
2017-11-08T15:32:58.150Z,100594.86
2017-11-08T15:35:27.388Z,100595.79
2017-11-08T15:37:56.684Z,100592.42
2017-11-08T15:40:29.649Z,100597.71
2017-11-08T15:42:58.927Z,100593.61
2017-11-08T15:45:28.190Z,100601.68
2017-11-08T15:47:57.573Z,100595.05
2017-11-08T15:50:27.745Z,100599.36
2017-11-08T15:52:57.076Z,100600.83
2017-11-08T15:55:26.353Z,100610.40
2017-11-08T15:57:55.613Z,100616.02
2017-11-08T16:00:24.898Z,100616.54
2017-11-08T16:02:54.170Z,100618.00
2017-11-08T16:05:23.585Z,100621.97
2017-11-08T16:07:52.950Z,100616.80
2017-11-08T16:10:23.774Z,100624.84
2017-11-08T16:12:55.884Z,100622.63
2017-11-08T16:15:25.217Z,100628.35
2017-11-08T16:17:54.511Z,100631.71
2017-11-08T16:20:24.004Z,100634.27
2017-11-08T16:22:53.252Z,100640.45
2017-11-08T16:25:22.539Z,100641.20
2017-11-08T16:27:51.805Z,100630.75
2017-11-08T16:30:21.080Z,100630.45
2017-11-08T16:32:50.535Z,100636.23
2017-11-08T16:35:21.397Z,100628.26
2017-11-08T16:37:51.163Z,100631.38
2017-11-08T16:40:20.614Z,100637.99
2017-11-08T16:42:50.703Z,100637.31
2017-11-08T16:45:20.247Z,100625.39
2017-11-08T16:47:50.294Z,100626.89
2017-11-08T16:50:19.702Z,100628.59
2017-11-08T16:52:49.029Z,100632.72
2017-11-08T16:55:18.262Z,100627.55
2017-11-08T16:57:47.527Z,100632.01
2017-11-08T17:00:16.731Z,100628.77
2017-11-08T17:02:45.953Z,100629.61
2017-11-08T17:05:15.224Z,100633.85
2017-11-08T17:07:44.473Z,100633.91
2017-11-08T17:10:13.727Z,100641.02
2017-11-08T17:12:44.484Z,100640.77
2017-11-08T17:15:14.542Z,100644.09
2017-11-08T17:17:43.854Z,100652.86
2017-11-08T17:20:14.094Z,100662.12
2017-11-08T17:22:43.345Z,100656.55
2017-11-08T17:25:12.572Z,100663.70
2017-11-08T17:27:41.868Z,100667.06
2017-11-08T17:30:11.093Z,100670.49
2017-11-08T17:32:40.534Z,100676.66
2017-11-08T17:35:10.471Z,100683.73
2017-11-08T17:37:39.961Z,100686.45
2017-11-08T17:40:09.199Z,100692.93
2017-11-08T17:42:38.436Z,100697.00
2017-11-08T17:45:07.686Z,100683.11
2017-11-08T17:47:36.918Z,100690.60
2017-11-08T17:50:06.900Z,100686.78
2017-11-08T17:52:36.156Z,100687.59
2017-11-08T17:55:05.452Z,100691.05
2017-11-08T17:57:34.701Z,100693.56
2017-11-08T18:00:05.518Z,100687.73
2017-11-08T18:02:34.836Z,100693.91
2017-11-08T18:05:04.321Z,100697.66
2017-11-08T18:07:33.580Z,100695.66
2017-11-08T18:10:03.576Z,100701.47
2017-11-08T18:12:32.861Z,100707.84
2017-11-08T18:15:02.103Z,100710.77
2017-11-08T18:17:31.374Z,100703.53
2017-11-08T18:20:00.616Z,100699.62
2017-11-08T18:22:29.926Z,100708.64
2017-11-08T18:24:59.216Z,100704.08
2017-11-08T18:27:29.250Z,100704.48
2017-11-08T18:29:58.576Z,100713.62
2017-11-08T18:32:27.834Z,100710.77
2017-11-08T18:34:57.130Z,100711.20
2017-11-08T18:37:26.751Z,100717.56
2017-11-08T18:39:55.985Z,100714.14
2017-11-08T18:42:25.277Z,100717.25
2017-11-08T18:44:54.635Z,100726.44
2017-11-08T18:47:23.883Z,100732.47
2017-11-08T18:49:53.157Z,100729.08
2017-11-08T18:52:22.395Z,100738.05
2017-11-08T18:54:52.387Z,100732.89
2017-11-08T18:57:21.691Z,100736.56
2017-11-08T18:59:50.960Z,100735.67
2017-11-08T19:02:20.201Z,100739.50
2017-11-08T19:04:50.213Z,100740.31
2017-11-08T19:07:19.661Z,100750.45
2017-11-08T19:09:48.945Z,100748.53
2017-11-08T19:12:18.184Z,100751.45
2017-11-08T19:14:47.419Z,100742.55
2017-11-08T19:17:16.654Z,100751.19
2017-11-08T19:19:46.054Z,100752.55
2017-11-08T19:22:15.365Z,100746.23
2017-11-08T19:24:44.582Z,100754.77
2017-11-08T19:27:13.868Z,100755.80
2017-11-08T19:29:43.160Z,100745.84
2017-11-08T19:32:12.404Z,100748.37
2017-11-08T19:34:43.979Z,100752.93
2017-11-08T19:37:13.962Z,100747.67
2017-11-08T19:39:43.275Z,100743.70
2017-11-08T19:42:13.301Z,100753.98
2017-11-08T19:44:43.316Z,100752.08
2017-11-08T19:47:14.063Z,100760.69
2017-11-08T19:49:43.319Z,100759.11
2017-11-08T19:52:12.569Z,100766.45
2017-11-08T19:54:41.855Z,100766.27
2017-11-08T19:57:11.907Z,100765.81
2017-11-08T19:59:41.141Z,100772.50
2017-11-08T20:02:10.391Z,100777.47
2017-11-08T20:04:39.685Z,100774.10
2017-11-08T20:07:09.260Z,100770.89
2017-11-08T20:09:39.258Z,100773.59
2017-11-08T20:12:09.359Z,100773.20
2017-11-08T20:24:28.929Z,100757.05
2017-11-08T20:40:03.920Z,100751.52
2017-11-08T20:42:33.264Z,100760.05
2017-11-08T20:45:03.265Z,100763.52
2017-11-08T20:47:33.693Z,100764.42
2017-11-08T20:50:03.761Z,100762.63
2017-11-08T20:52:33.014Z,100755.28
2017-11-08T20:55:02.374Z,100759.52
2017-11-08T20:57:31.741Z,100752.91
2017-11-08T21:00:01.083Z,100755.15
2017-11-08T21:02:30.445Z,100761.87
2017-11-08T21:04:59.714Z,100758.73
2017-11-08T21:07:29.324Z,100762.69
2017-11-08T21:09:58.573Z,100760.05
2017-11-08T21:12:27.833Z,100767.21
2017-11-08T21:14:58.045Z,100764.30
2017-11-08T21:17:27.270Z,100768.64
2017-11-08T21:19:56.517Z,100764.27
2017-11-08T21:22:25.740Z,100768.73
2017-11-08T21:24:54.992Z,100774.62
2017-11-08T21:27:25.318Z,100779.71
2017-11-08T21:29:54.557Z,100774.72
2017-11-08T21:32:23.868Z,100780.77
2017-11-08T21:34:53.102Z,100777.66
2017-11-08T21:37:22.327Z,100780.86
2017-11-08T21:39:51.557Z,100775.54
2017-11-08T21:42:20.799Z,100773.38
2017-11-08T21:44:50.043Z,100773.20
2017-11-08T21:47:20.029Z,100775.61
2017-11-08T21:49:49.297Z,100773.89
2017-11-08T21:52:18.513Z,100775.77
2017-11-08T21:54:47.885Z,100781.27
2017-11-08T21:57:18.490Z,100775.52
2017-11-08T21:59:47.756Z,100772.77
2017-11-08T22:02:17.238Z,100772.13
2017-11-08T22:04:46.506Z,100774.19
2017-11-08T22:07:15.748Z,100772.58
2017-11-08T22:09:44.960Z,100776.07
2017-11-08T22:12:14.968Z,100772.81
2017-11-08T22:14:44.228Z,100784.25
2017-11-08T22:17:13.458Z,100778.53
2017-11-08T22:19:44.309Z,100775.87
2017-11-08T22:22:13.538Z,100778.03
2017-11-08T22:24:42.895Z,100779.76
2017-11-08T22:27:12.960Z,100781.42
2017-11-08T22:29:42.214Z,100779.45
2017-11-08T22:32:12.290Z,100778.00
2017-11-08T22:34:41.502Z,100769.40
2017-11-08T22:37:10.726Z,100777.20
2017-11-08T22:39:40.234Z,100772.70
2017-11-08T22:42:09.619Z,100771.33
2017-11-08T22:44:38.845Z,100771.48
2017-11-08T22:47:08.054Z,100773.78
2017-11-08T22:49:38.265Z,100773.89
2017-11-08T22:52:08.972Z,100771.68
2017-11-08T22:54:38.216Z,100766.01
2017-11-08T22:57:10.176Z,100766.56
2017-11-08T22:59:40.342Z,100763.05
2017-11-08T23:02:09.553Z,100766.86
2017-11-08T23:04:38.792Z,100758.23
2017-11-08T23:07:08.801Z,100757.58
2017-11-08T23:09:38.049Z,100757.28
2017-11-08T23:12:07.384Z,100750.01
2017-11-08T23:14:37.400Z,100760.84
2017-11-08T23:17:07.414Z,100761.70
2017-11-08T23:19:36.652Z,100760.87
2017-11-08T23:22:05.920Z,100764.95
2017-11-08T23:24:36.085Z,100757.55
2017-11-08T23:27:05.324Z,100759.81
2017-11-08T23:29:34.566Z,100762.83
2017-11-08T23:32:03.801Z,100767.52
2017-11-08T23:34:33.041Z,100768.84
2017-11-08T23:37:03.296Z,100757.61
2017-11-08T23:39:32.509Z,100762.23
2017-11-08T23:42:01.750Z,100753.62
2017-11-08T23:44:31.744Z,100751.21
2017-11-08T23:47:00.965Z,100755.83
2017-11-08T23:49:30.984Z,100755.87
2017-11-08T23:52:00.242Z,100763.73
2017-11-08T23:54:29.470Z,100760.80
2017-11-08T23:56:58.690Z,100760.80
2017-11-08T23:59:29.711Z,100772.56
